createdAt,value
2023-03-17T00:00:17.954Z,99340.44
2023-03-17T00:01:26.355Z,99340.44
2023-03-17T00:02:31.615Z,99311.63
2023-03-17T00:03:40.518Z,99331.63
2023-03-17T00:04:44.506Z,99327.34
2023-03-17T00:05:48.634Z,99292.16
2023-03-17T00:06:53.364Z,99336.13
2023-03-17T00:08:04.498Z,99313.88
2023-03-17T00:09:14.942Z,99337.00
2023-03-17T00:10:19.679Z,99328.03
2023-03-17T00:11:23.930Z,99336.13
2023-03-17T00:12:26.642Z,99314.19
2023-03-17T00:13:32.430Z,99327.47
2023-03-17T00:14:35.082Z,99321.56
2023-03-17T00:15:39.002Z,99325.88
2023-03-17T00:16:45.436Z,99328.44
2023-03-17T00:17:50.582Z,99323.31
2023-03-17T00:18:54.371Z,99312.09
2023-03-17T00:19:57.672Z,99324.91
2023-03-17T00:21:01.164Z,99320.59
2023-03-17T00:22:06.817Z,99328.28
2023-03-17T00:23:15.067Z,99326.63
2023-03-17T00:24:18.705Z,99328.28
2023-03-17T00:25:25.016Z,99327.16
2023-03-17T00:26:29.289Z,99313.63
2023-03-17T00:27:31.808Z,99317.22
2023-03-17T00:28:35.549Z,99319.78
2023-03-17T00:29:38.346Z,99325.72
2023-03-17T00:30:42.088Z,99322.22
2023-03-17T00:31:46.224Z,99322.22
2023-03-17T00:32:51.895Z,99316.09
2023-03-17T00:33:55.383Z,99326.34
2023-03-17T00:34:59.154Z,99329.81
2023-03-17T00:36:01.962Z,99328.03
2023-03-17T00:37:05.632Z,99322.84
2023-03-17T00:38:11.787Z,99325.47
2023-03-17T00:40:21.972Z,99325.56
2023-03-17T00:41:25.923Z,99323.00
2023-03-17T00:42:28.516Z,99305.41
2023-03-17T00:43:32.794Z,99318.59
2023-03-17T00:44:35.607Z,99331.63
2023-03-17T00:45:39.553Z,99329.06
2023-03-17T00:46:42.453Z,99327.97
2023-03-17T00:47:47.835Z,99332.47
2023-03-17T00:48:50.632Z,99322.06
2023-03-17T00:49:54.542Z,99329.00
2023-03-17T00:50:57.173Z,99336.75
2023-03-17T00:52:01.799Z,99331.56
2023-03-17T00:53:04.406Z,99338.38
2023-03-17T00:54:08.815Z,99328.13
2023-03-17T00:55:12.101Z,99331.56
2023-03-17T00:56:17.434Z,99324.63
2023-03-17T00:57:20.037Z,99329.81
2023-03-17T00:58:29.005Z,99343.50
2023-03-17T00:59:39.021Z,99326.91
2023-03-17T01:00:42.339Z,99334.91
2023-03-17T01:01:45.409Z,99332.34
2023-03-17T01:02:51.086Z,99331.41
2023-03-17T01:03:53.718Z,99327.78
2023-03-17T01:05:05.724Z,99341.66
2023-03-17T01:06:11.282Z,99340.84
2023-03-17T01:07:15.707Z,99345.09
2023-03-17T01:08:19.458Z,99338.94
2023-03-17T01:09:26.061Z,99344.28
2023-03-17T01:10:29.982Z,99346.06
2023-03-17T01:11:33.925Z,99348.63
2023-03-17T01:12:36.594Z,99325.97
2023-03-17T01:13:40.718Z,99342.72
2023-03-17T01:14:43.966Z,99356.63
2023-03-17T01:15:49.610Z,99345.56
2023-03-17T01:16:53.363Z,99323.72
2023-03-17T01:17:58.884Z,99349.25
2023-03-17T01:19:01.509Z,99314.38
2023-03-17T01:20:06.762Z,99344.28
2023-03-17T01:21:09.404Z,99341.72
2023-03-17T01:22:13.768Z,99340.91
2023-03-17T01:23:17.278Z,99340.19
2023-03-17T01:24:21.248Z,99348.78
2023-03-17T01:25:24.058Z,99344.69
2023-03-17T01:26:27.763Z,99345.56
2023-03-17T01:27:34.234Z,99348.38
2023-03-17T01:28:38.012Z,99343.00
2023-03-17T01:29:40.252Z,99356.28
2023-03-17T01:30:43.946Z,99336.13
2023-03-17T01:31:48.016Z,99351.25
2023-03-17T01:32:52.226Z,99353.94
2023-03-17T01:33:56.452Z,99346.25
2023-03-17T01:35:00.313Z,99356.59
2023-03-17T01:36:03.212Z,99349.66
2023-03-17T01:37:07.210Z,99343.84
2023-03-17T01:38:10.323Z,99348.09
2023-03-17T01:39:14.756Z,99339.63
2023-03-17T01:40:20.806Z,99344.84
2023-03-17T01:41:25.219Z,99343.94
2023-03-17T01:42:29.547Z,99341.44
2023-03-17T01:43:33.271Z,99344.16
2023-03-17T01:44:35.687Z,99338.25
2023-03-17T01:46:18.759Z,99343.44
2023-03-17T01:47:22.656Z,99343.38
2023-03-17T01:48:26.367Z,99337.94
2023-03-17T01:49:33.552Z,99346.66
2023-03-17T01:50:36.964Z,99341.38
2023-03-17T01:51:46.975Z,99346.66
2023-03-17T01:52:49.171Z,99343.28
2023-03-17T01:53:54.306Z,99347.47
2023-03-17T01:55:00.924Z,99342.34
2023-03-17T01:56:04.932Z,99347.41
2023-03-17T01:57:17.094Z,99341.28
2023-03-17T01:58:24.339Z,99346.50
2023-03-17T01:59:32.732Z,99337.72
2023-03-17T02:00:35.563Z,99345.53
2023-03-17T02:01:44.570Z,99352.38
2023-03-17T02:02:49.320Z,99352.38
2023-03-17T02:03:54.088Z,99340.34
2023-03-17T02:04:58.734Z,99345.41
2023-03-17T02:06:03.242Z,99346.25
2023-03-17T02:07:06.522Z,99331.59
2023-03-17T02:08:12.751Z,99343.56
2023-03-17T02:09:15.338Z,99334.16
2023-03-17T02:10:21.024Z,99345.25
2023-03-17T02:11:24.176Z,99340.13
2023-03-17T02:12:30.581Z,99339.22
2023-03-17T02:13:33.705Z,99333.31
2023-03-17T02:14:37.856Z,99339.13
2023-03-17T02:15:42.372Z,99329.53
2023-03-17T02:16:46.727Z,99343.56
2023-03-17T02:17:50.110Z,99338.44
2023-03-17T02:18:53.799Z,99341.78
2023-03-17T02:19:57.534Z,99346.19
2023-03-17T02:21:30.652Z,99346.25
2023-03-17T02:22:35.881Z,99345.47
2023-03-17T02:23:38.464Z,99354.03
2023-03-17T02:24:45.183Z,99334.44
2023-03-17T02:25:49.052Z,99330.03
2023-03-17T02:26:55.368Z,99336.88
2023-03-17T02:28:02.127Z,99335.94
2023-03-17T02:29:06.773Z,99336.97
2023-03-17T02:30:13.156Z,99330.97
2023-03-17T02:31:17.438Z,99335.06
2023-03-17T02:32:22.232Z,99327.03
2023-03-17T02:33:24.953Z,99340.13
2023-03-17T02:34:28.731Z,99351.16
2023-03-17T02:35:31.862Z,99342.53
2023-03-17T02:36:35.928Z,99344.97
2023-03-17T02:37:40.373Z,99340.69
2023-03-17T02:38:43.971Z,99325.06
2023-03-17T02:39:47.905Z,99324.09
2023-03-17T02:40:50.508Z,99334.50
2023-03-17T02:41:54.098Z,99328.50
2023-03-17T02:42:57.069Z,99326.81
2023-03-17T02:44:00.884Z,99331.06
2023-03-17T02:45:03.564Z,99333.63
2023-03-17T02:46:07.733Z,99332.56
2023-03-17T02:47:11.617Z,99335.06
2023-03-17T02:48:14.013Z,99331.78
2023-03-17T02:49:21.809Z,99335.97
2023-03-17T02:50:28.102Z,99329.78
2023-03-17T02:51:31.899Z,99345.38
2023-03-17T02:52:34.606Z,99347.94
2023-03-17T02:53:39.887Z,99326.34
2023-03-17T02:54:43.084Z,99340.19
2023-03-17T02:55:46.854Z,99335.81
2023-03-17T02:56:49.039Z,99344.44
2023-03-17T02:57:52.605Z,99343.56
2023-03-17T02:58:55.178Z,99342.69
2023-03-17T02:59:58.859Z,99339.09
2023-03-17T03:01:01.560Z,99347.66
2023-03-17T03:02:05.413Z,99334.59
2023-03-17T03:03:08.092Z,99349.41
2023-03-17T03:04:12.189Z,99333.19
2023-03-17T03:05:15.200Z,99346.84
2023-03-17T03:06:19.014Z,99349.41
2023-03-17T03:07:23.062Z,99341.56
2023-03-17T03:08:27.645Z,99340.75
2023-03-17T03:09:31.559Z,99335.47
2023-03-17T03:10:35.298Z,99345.09
2023-03-17T03:11:37.780Z,99342.38
2023-03-17T03:12:41.183Z,99337.25
2023-03-17T03:13:45.286Z,99332.75
2023-03-17T03:14:48.024Z,99334.59
2023-03-17T03:15:51.813Z,99333.56
2023-03-17T03:16:54.819Z,99324.91
2023-03-17T03:17:58.522Z,99324.91
2023-03-17T03:19:00.923Z,99336.94
2023-03-17T03:20:05.342Z,99328.44
2023-03-17T03:21:09.869Z,99324.13
2023-03-17T03:22:13.701Z,99323.16
2023-03-17T03:23:16.596Z,99321.56
2023-03-17T03:24:20.283Z,99325.88
2023-03-17T03:25:24.043Z,99325.06
2023-03-17T03:26:27.712Z,99322.50
2023-03-17T03:27:30.487Z,99319.00
2023-03-17T03:28:34.441Z,99296.34
2023-03-17T03:29:37.303Z,99324.44
2023-03-17T03:30:41.893Z,99332.13
2023-03-17T03:31:44.472Z,99328.75
2023-03-17T03:32:48.799Z,99327.16
2023-03-17T03:33:52.660Z,99329.78
2023-03-17T03:34:54.859Z,99330.69
2023-03-17T03:35:59.644Z,99328.19
2023-03-17T03:37:02.435Z,99322.19
2023-03-17T03:38:06.183Z,99328.44
2023-03-17T03:39:09.038Z,99325.16
2023-03-17T03:40:14.688Z,99327.78
2023-03-17T03:41:18.803Z,99321.84
2023-03-17T03:42:22.798Z,99322.81
2023-03-17T03:43:25.960Z,99317.78
2023-03-17T03:44:29.666Z,99320.41
2023-03-17T03:45:32.397Z,99320.41
2023-03-17T03:46:36.369Z,99318.88
2023-03-17T03:47:38.902Z,99320.72
2023-03-17T03:48:42.606Z,99324.22
2023-03-17T03:49:44.843Z,99327.91
2023-03-17T03:50:50.059Z,99326.38
2023-03-17T03:51:52.648Z,99317.81
2023-03-17T03:52:56.363Z,99324.94
2023-03-17T03:53:58.747Z,99330.16
2023-03-17T03:55:02.501Z,99316.28
2023-03-17T03:56:07.180Z,99329.41
2023-03-17T03:57:12.567Z,99329.63
2023-03-17T03:58:15.415Z,99327.22
2023-03-17T03:59:19.204Z,99330.69
2023-03-17T04:00:23.137Z,99336.69
2023-03-17T04:01:25.909Z,99339.16
2023-03-17T04:02:30.102Z,99329.47
2023-03-17T04:03:33.349Z,99344.38
2023-03-17T04:04:37.340Z,99328.28
2023-03-17T04:05:40.196Z,99347.06
2023-03-17T04:06:43.860Z,99337.69
2023-03-17T04:07:47.002Z,99336.69
2023-03-17T04:08:50.804Z,99332.34
2023-03-17T04:09:53.549Z,99335.81
2023-03-17T04:10:57.311Z,99345.50
2023-03-17T04:11:59.910Z,99348.06
2023-03-17T04:13:05.265Z,99341.94
2023-03-17T04:14:07.837Z,99342.09
2023-03-17T04:15:15.685Z,99352.34
2023-03-17T04:16:18.331Z,99354.84
2023-03-17T04:17:22.168Z,99342.84
2023-03-17T04:18:25.997Z,99339.31
2023-03-17T04:19:29.754Z,99348.13
2023-03-17T04:20:33.590Z,99330.38
2023-03-17T04:21:35.885Z,99351.56
2023-03-17T04:22:39.677Z,99355.06
2023-03-17T04:23:42.292Z,99342.94
2023-03-17T04:24:46.239Z,99335.72
2023-03-17T04:25:51.814Z,99358.59
2023-03-17T04:26:55.543Z,99361.16
2023-03-17T04:27:57.758Z,99357.00
2023-03-17T04:29:02.938Z,99357.00
2023-03-17T04:30:07.298Z,99353.47
2023-03-17T04:31:13.304Z,99355.22
2023-03-17T04:32:16.270Z,99361.31
2023-03-17T04:33:20.661Z,99366.44
2023-03-17T04:34:23.495Z,99364.75
2023-03-17T04:35:27.412Z,99358.59
2023-03-17T04:36:29.992Z,99362.13
2023-03-17T04:37:34.701Z,99364.84
2023-03-17T04:38:37.260Z,99376.69
2023-03-17T04:39:41.013Z,99368.00
2023-03-17T04:40:43.267Z,99375.75
2023-03-17T04:41:47.909Z,99371.13
2023-03-17T04:42:50.604Z,99376.41
2023-03-17T04:43:54.289Z,99386.69
2023-03-17T04:44:58.360Z,99366.41
2023-03-17T04:46:02.122Z,99391.88
2023-03-17T04:47:04.877Z,99383.38
2023-03-17T04:48:08.554Z,99386.00
2023-03-17T04:49:11.045Z,99380.81
2023-03-17T04:50:15.630Z,99375.97
2023-03-17T04:51:18.245Z,99356.34
2023-03-17T04:52:21.956Z,99349.69
2023-03-17T04:53:24.199Z,99364.28
2023-03-17T04:54:27.887Z,99359.06
2023-03-17T04:55:30.807Z,99358.41
2023-03-17T04:56:34.583Z,99361.03
2023-03-17T04:57:37.101Z,99358.63
2023-03-17T04:58:40.449Z,99354.44
2023-03-17T04:59:43.018Z,99347.72
2023-03-17T05:00:48.243Z,99353.88
2023-03-17T05:01:51.870Z,99363.34
2023-03-17T05:02:54.394Z,99366.84
2023-03-17T05:03:58.138Z,99363.34
2023-03-17T05:05:00.334Z,99371.19
2023-03-17T05:06:05.476Z,99374.69
2023-03-17T05:07:08.035Z,99370.34
2023-03-17T05:08:11.671Z,99377.91
2023-03-17T05:09:14.254Z,99370.66
2023-03-17T05:10:18.556Z,99396.84
2023-03-17T05:11:21.199Z,99381.94
2023-03-17T05:12:27.166Z,99388.09
2023-03-17T05:13:29.851Z,99377.78
2023-03-17T05:14:33.628Z,99385.38
2023-03-17T05:15:37.011Z,99382.75
2023-03-17T05:16:42.138Z,99392.13
2023-03-17T05:17:44.740Z,99386.22
2023-03-17T05:18:49.055Z,99388.84
2023-03-17T05:19:53.022Z,99391.41
2023-03-17T05:20:57.016Z,99393.19
2023-03-17T05:22:01.426Z,99389.78
2023-03-17T05:23:04.011Z,99381.13
2023-03-17T05:24:08.053Z,99394.19
2023-03-17T05:25:10.838Z,99386.59
2023-03-17T05:26:16.386Z,99386.59
2023-03-17T05:27:31.610Z,99384.97
2023-03-17T05:28:44.427Z,99386.78
2023-03-17T05:29:47.953Z,99388.56
2023-03-17T05:30:52.372Z,99391.28
2023-03-17T05:31:58.781Z,99383.59
2023-03-17T05:33:02.562Z,99389.56
2023-03-17T05:34:05.897Z,99386.22
2023-03-17T05:35:10.523Z,99393.19
2023-03-17T05:36:14.678Z,99388.19
2023-03-17T05:37:17.640Z,99378.81
2023-03-17T05:38:21.226Z,99392.53
2023-03-17T05:39:23.769Z,99396.09
2023-03-17T05:40:27.617Z,99404.69
2023-03-17T05:41:30.705Z,99404.63
2023-03-17T05:42:34.308Z,99398.69
2023-03-17T05:43:37.213Z,99389.09
2023-03-17T05:44:40.762Z,99396.09
2023-03-17T05:45:43.570Z,99389.16
2023-03-17T05:46:47.192Z,99388.34
2023-03-17T05:47:51.248Z,99393.47
2023-03-17T05:48:54.863Z,99395.97
2023-03-17T05:49:57.455Z,99395.97
2023-03-17T05:51:01.295Z,99386.53
2023-03-17T05:52:04.066Z,99384.91
2023-03-17T05:53:07.862Z,99386.81
2023-03-17T05:54:10.706Z,99381.69
2023-03-17T05:55:14.377Z,99387.97
2023-03-17T05:56:17.291Z,99404.47
2023-03-17T05:57:21.252Z,99400.31
2023-03-17T05:58:23.719Z,99412.41
2023-03-17T05:59:27.972Z,99417.69
2023-03-17T06:00:31.151Z,99416.72
2023-03-17T06:01:35.351Z,99407.50
2023-03-17T06:02:38.328Z,99405.81
2023-03-17T06:03:43.392Z,99403.41
2023-03-17T06:04:46.042Z,99402.59
2023-03-17T06:05:49.860Z,99398.91
2023-03-17T06:06:52.698Z,99395.69
2023-03-17T06:07:56.697Z,99397.00
2023-03-17T06:08:59.523Z,99404.13
2023-03-17T06:10:03.710Z,99407.59
2023-03-17T06:11:06.552Z,99417.13
2023-03-17T06:12:11.214Z,99403.31
2023-03-17T06:13:13.729Z,99402.59
2023-03-17T06:14:17.427Z,99373.59
2023-03-17T06:15:19.773Z,99369.34
2023-03-17T06:16:23.523Z,99385.81
2023-03-17T06:17:26.698Z,99393.13
2023-03-17T06:18:30.403Z,99393.44
2023-03-17T06:19:34.103Z,99384.19
2023-03-17T06:20:37.983Z,99371.47
2023-03-17T06:21:40.624Z,99365.59
2023-03-17T06:23:02.371Z,99369.25
2023-03-17T06:24:07.632Z,99377.19
2023-03-17T06:25:10.847Z,99378.19
2023-03-17T06:26:15.730Z,99374.97
2023-03-17T06:27:18.308Z,99371.66
2023-03-17T06:28:22.443Z,99354.13
2023-03-17T06:29:25.058Z,99361.88
2023-03-17T06:30:28.669Z,99357.81
2023-03-17T06:31:31.209Z,99357.88
2023-03-17T06:32:35.451Z,99345.78
2023-03-17T06:33:38.451Z,99370.13
2023-03-17T06:34:43.735Z,99370.28
2023-03-17T06:35:46.983Z,99371.22
2023-03-17T06:36:50.706Z,99361.69
2023-03-17T06:37:52.933Z,99360.25
2023-03-17T06:38:56.723Z,99351.88
2023-03-17T06:40:01.136Z,99351.13
2023-03-17T06:41:04.792Z,99349.44
2023-03-17T06:42:08.288Z,99365.78
2023-03-17T06:43:12.520Z,99392.31
2023-03-17T06:44:15.432Z,99400.63
2023-03-17T06:45:19.210Z,99398.75
2023-03-17T06:46:21.820Z,99413.09
2023-03-17T06:47:26.133Z,99415.09
2023-03-17T06:48:28.987Z,99418.41
2023-03-17T06:49:35.891Z,99413.72
2023-03-17T06:50:40.919Z,99411.00
2023-03-17T06:51:43.409Z,99382.78
2023-03-17T06:52:47.184Z,99395.91
2023-03-17T06:53:49.386Z,99409.13
2023-03-17T06:54:53.233Z,99409.75
2023-03-17T06:55:56.490Z,99410.66
2023-03-17T06:57:00.228Z,99408.03
2023-03-17T06:58:04.238Z,99399.34
2023-03-17T06:59:06.799Z,99390.84
2023-03-17T07:00:12.925Z,99391.78
2023-03-17T07:01:15.981Z,99408.03
2023-03-17T07:02:20.440Z,99410.50
2023-03-17T07:03:24.223Z,99397.75
2023-03-17T07:04:28.022Z,99376.38
2023-03-17T07:05:33.692Z,99369.69
2023-03-17T07:06:39.407Z,99363.75
2023-03-17T07:07:43.123Z,99345.09
2023-03-17T07:08:46.551Z,99339.34
2023-03-17T07:09:50.088Z,99339.44
2023-03-17T07:10:56.234Z,99343.06
2023-03-17T07:11:58.864Z,99350.22
2023-03-17T07:13:02.522Z,99351.41
2023-03-17T07:14:05.994Z,99349.97
2023-03-17T07:15:11.294Z,99365.75
2023-03-17T07:16:17.146Z,99386.50
2023-03-17T07:17:21.020Z,99412.34
2023-03-17T07:18:26.346Z,99426.91
2023-03-17T07:19:30.520Z,99426.94
2023-03-17T07:20:36.111Z,99425.22
2023-03-17T07:21:42.294Z,99420.97
2023-03-17T07:22:45.955Z,99417.41
2023-03-17T07:23:48.563Z,99419.19
2023-03-17T07:24:52.773Z,99415.72
2023-03-17T07:25:55.885Z,99402.22
2023-03-17T07:26:59.735Z,99396.09
2023-03-17T07:28:03.322Z,99381.41
2023-03-17T07:29:06.862Z,99370.59
2023-03-17T07:30:11.696Z,99364.63
2023-03-17T07:31:15.263Z,99365.78
2023-03-17T07:32:19.486Z,99374.56
2023-03-17T07:33:22.513Z,99378.91
2023-03-17T07:34:26.230Z,99393.78
2023-03-17T07:35:30.756Z,99404.31
2023-03-17T07:36:34.692Z,99395.88
2023-03-17T07:37:39.047Z,99393.38
2023-03-17T07:38:43.502Z,99396.19
2023-03-17T07:39:47.568Z,99381.03
2023-03-17T07:40:51.265Z,99367.34
2023-03-17T07:41:55.500Z,99363.41
2023-03-17T07:43:00.023Z,99359.31
2023-03-17T07:44:04.080Z,99360.34
2023-03-17T07:45:08.985Z,99342.50
2023-03-17T07:46:14.137Z,99339.28
2023-03-17T07:47:18.107Z,99335.16
2023-03-17T07:48:21.527Z,99347.13
2023-03-17T07:49:40.492Z,99338.59
2023-03-17T07:50:45.486Z,99349.00
2023-03-17T07:51:47.986Z,99366.97
2023-03-17T07:52:52.987Z,99383.34
2023-03-17T07:54:04.000Z,99398.81
2023-03-17T07:55:10.850Z,99395.97
2023-03-17T07:56:14.972Z,99383.69
2023-03-17T07:57:17.680Z,99370.97
2023-03-17T07:58:21.951Z,99346.06
2023-03-17T07:59:24.704Z,99351.16
2023-03-17T08:00:29.619Z,99357.94
2023-03-17T08:01:33.706Z,99379.25
2023-03-17T08:02:36.564Z,99393.44
2023-03-17T08:03:41.672Z,99414.47
2023-03-17T08:04:45.153Z,99430.34
2023-03-17T08:05:53.551Z,99417.63
2023-03-17T08:06:57.735Z,99405.66
2023-03-17T08:08:03.098Z,99388.50
2023-03-17T08:09:05.652Z,99366.53
2023-03-17T08:10:12.004Z,99395.25
2023-03-17T08:11:15.611Z,99410.53
2023-03-17T08:12:20.320Z,99400.03
2023-03-17T08:13:23.528Z,99405.44
2023-03-17T08:14:27.205Z,99404.81
2023-03-17T08:15:31.182Z,99399.78
2023-03-17T08:16:37.652Z,99414.22
2023-03-17T08:17:42.025Z,99420.88
2023-03-17T08:18:45.018Z,99420.72
2023-03-17T08:19:48.708Z,99435.38
2023-03-17T08:20:52.783Z,99426.03
2023-03-17T08:21:56.508Z,99420.88
2023-03-17T08:22:59.984Z,99411.59
2023-03-17T08:24:05.552Z,99407.47
2023-03-17T08:25:10.072Z,99414.50
2023-03-17T08:26:14.661Z,99422.97
2023-03-17T08:27:17.437Z,99432.72
2023-03-17T08:28:21.437Z,99427.63
2023-03-17T08:29:24.105Z,99414.91
2023-03-17T08:30:27.853Z,99394.59
2023-03-17T08:31:31.353Z,99387.00
2023-03-17T08:32:35.135Z,99399.16
2023-03-17T08:33:38.921Z,99411.16
2023-03-17T08:34:41.333Z,99423.34
2023-03-17T08:35:45.137Z,99431.81
2023-03-17T08:36:48.999Z,99410.16
2023-03-17T08:37:51.121Z,99407.91
2023-03-17T08:38:54.898Z,99389.13
2023-03-17T08:39:59.976Z,99376.41
2023-03-17T08:41:02.955Z,99379.03
2023-03-17T08:42:07.490Z,99374.09
2023-03-17T08:43:12.771Z,99383.00
2023-03-17T08:44:16.764Z,99380.53
2023-03-17T08:45:19.594Z,99395.25
2023-03-17T08:46:25.666Z,99399.75
2023-03-17T08:47:28.677Z,99404.34
2023-03-17T08:48:33.396Z,99408.91
2023-03-17T08:49:36.754Z,99404.78
2023-03-17T08:50:40.847Z,99422.31
2023-03-17T08:51:45.483Z,99428.50
2023-03-17T08:52:50.214Z,99431.09
2023-03-17T08:53:55.104Z,99434.53
2023-03-17T08:55:00.226Z,99428.50
2023-03-17T08:56:04.923Z,99420.91
2023-03-17T08:57:08.666Z,99435.59
2023-03-17T08:58:12.521Z,99438.88
2023-03-17T08:59:16.897Z,99447.56
2023-03-17T09:00:21.745Z,99450.06
2023-03-17T09:01:25.786Z,99453.38
2023-03-17T09:02:28.857Z,99448.19
2023-03-17T09:03:33.337Z,99456.91
2023-03-17T09:04:40.063Z,99455.34
2023-03-17T09:05:44.378Z,99461.19
2023-03-17T09:07:02.227Z,99456.84
2023-03-17T09:08:07.865Z,99453.34
2023-03-17T09:09:13.100Z,99453.34
2023-03-17T09:10:21.367Z,99455.16
2023-03-17T09:11:27.846Z,99455.41
2023-03-17T09:12:32.181Z,99450.31
2023-03-17T09:13:39.195Z,99443.50
2023-03-17T09:14:44.083Z,99441.94
2023-03-17T09:15:50.110Z,99451.56
2023-03-17T09:16:55.737Z,99440.94
2023-03-17T09:17:58.438Z,99461.03
2023-03-17T09:19:02.445Z,99462.63
2023-03-17T09:20:06.884Z,99462.69
2023-03-17T09:21:12.321Z,99456.91
2023-03-17T09:22:16.570Z,99461.28
2023-03-17T09:23:20.998Z,99444.31
2023-03-17T09:24:23.676Z,99440.84
2023-03-17T09:25:28.867Z,99435.75
2023-03-17T09:26:31.445Z,99440.28
2023-03-17T09:27:35.266Z,99441.38
2023-03-17T09:28:39.226Z,99442.66
2023-03-17T09:29:42.684Z,99443.75
2023-03-17T09:30:46.939Z,99438.72
2023-03-17T09:31:49.544Z,99434.72
2023-03-17T09:32:53.346Z,99430.81
2023-03-17T09:33:57.060Z,99428.22
2023-03-17T09:34:59.242Z,99424.22
2023-03-17T09:36:03.380Z,99431.19
2023-03-17T09:37:07.041Z,99427.25
2023-03-17T09:38:11.439Z,99424.94
2023-03-17T09:39:15.162Z,99422.53
2023-03-17T09:40:21.418Z,99433.19
2023-03-17T09:41:50.817Z,99429.09
2023-03-17T09:43:01.870Z,99429.28
2023-03-17T09:44:13.845Z,99431.19
2023-03-17T09:45:32.961Z,99431.34
2023-03-17T09:46:48.965Z,99434.06
2023-03-17T09:48:06.378Z,99440.09
2023-03-17T09:49:14.032Z,99445.91
2023-03-17T09:50:21.394Z,99439.72
2023-03-17T09:51:23.968Z,99437.84
2023-03-17T09:52:30.699Z,99433.47
2023-03-17T09:53:36.505Z,99433.34
2023-03-17T09:54:41.009Z,99428.06
2023-03-17T09:55:46.126Z,99429.88
2023-03-17T09:57:01.941Z,99422.09
2023-03-17T09:58:04.673Z,99426.47
2023-03-17T09:59:30.805Z,99424.00
2023-03-17T10:00:33.749Z,99414.38
2023-03-17T10:01:45.397Z,99418.22
2023-03-17T10:02:47.900Z,99417.50
2023-03-17T10:03:51.927Z,99428.75
2023-03-17T10:04:54.860Z,99429.53
2023-03-17T10:06:32.375Z,99423.59
2023-03-17T10:07:46.611Z,99414.03
2023-03-17T10:08:56.420Z,99425.25
2023-03-17T10:10:03.659Z,99422.59
2023-03-17T10:11:15.439Z,99426.06
2023-03-17T10:12:30.150Z,99426.84
2023-03-17T10:13:44.992Z,99417.16
2023-03-17T10:14:56.068Z,99430.88
2023-03-17T10:16:03.961Z,99425.59
2023-03-17T10:17:17.835Z,99417.69
2023-03-17T10:18:26.109Z,99422.78
2023-03-17T10:19:33.199Z,99411.44
2023-03-17T10:20:41.318Z,99410.53
2023-03-17T10:21:52.179Z,99410.38
2023-03-17T10:22:58.675Z,99407.81
2023-03-17T10:24:03.856Z,99411.97
2023-03-17T10:25:15.444Z,99405.84
2023-03-17T10:26:31.835Z,99403.19
2023-03-17T10:27:39.114Z,99408.09
2023-03-17T10:28:43.096Z,99409.75
2023-03-17T10:29:48.295Z,99420.06
2023-03-17T10:30:52.873Z,99418.25
2023-03-17T10:31:58.545Z,99423.34
2023-03-17T10:33:07.383Z,99423.28
2023-03-17T10:34:14.687Z,99419.66
2023-03-17T10:35:18.995Z,99430.81
2023-03-17T10:36:35.018Z,99412.28
2023-03-17T10:37:38.815Z,99410.69
2023-03-17T10:38:41.743Z,99421.78
2023-03-17T10:39:48.355Z,99422.47
2023-03-17T10:40:58.343Z,99423.97
2023-03-17T10:42:10.260Z,99412.53
2023-03-17T10:43:20.751Z,99416.88
2023-03-17T10:44:37.357Z,99407.25
2023-03-17T10:45:46.916Z,99406.94
2023-03-17T10:46:55.841Z,99407.81
2023-03-17T10:47:59.763Z,99409.47
2023-03-17T10:49:08.631Z,99412.81
2023-03-17T10:50:25.193Z,99399.91
2023-03-17T10:51:32.220Z,99392.09
2023-03-17T10:52:41.082Z,99399.84
2023-03-17T10:53:44.062Z,99386.84
2023-03-17T10:54:49.916Z,99398.16
2023-03-17T10:55:53.630Z,99406.78
2023-03-17T10:57:01.526Z,99412.91
2023-03-17T10:58:08.145Z,99401.91
2023-03-17T10:59:20.761Z,99390.94
2023-03-17T11:00:26.592Z,99391.00
2023-03-17T11:01:34.931Z,99385.09
2023-03-17T11:02:46.270Z,99388.75
2023-03-17T11:03:49.745Z,99391.31
2023-03-17T11:04:57.055Z,99386.97
2023-03-17T11:06:05.058Z,99380.13
2023-03-17T11:07:15.595Z,99379.19
2023-03-17T11:08:22.000Z,99375.84
2023-03-17T11:09:26.542Z,99385.31
2023-03-17T11:10:30.483Z,99387.09
2023-03-17T11:11:35.066Z,99382.63
2023-03-17T11:12:41.274Z,99400.09
2023-03-17T11:13:43.957Z,99410.53
2023-03-17T11:14:50.091Z,99409.69
2023-03-17T11:15:58.816Z,99419.44
2023-03-17T11:17:04.134Z,99410.84
2023-03-17T11:18:15.786Z,99423.06
2023-03-17T11:19:19.060Z,99416.47
2023-03-17T11:20:42.422Z,99427.81
2023-03-17T11:21:57.455Z,99425.34
2023-03-17T11:23:06.225Z,99426.31
2023-03-17T11:24:15.434Z,99422.00
2023-03-17T11:25:19.805Z,99434.78
2023-03-17T11:26:48.020Z,99429.44
2023-03-17T11:27:54.992Z,99424.91
2023-03-17T11:29:14.108Z,99427.41
2023-03-17T11:30:27.001Z,99421.06
2023-03-17T11:31:34.463Z,99424.59
2023-03-17T11:32:44.963Z,99419.31
2023-03-17T11:33:57.534Z,99420.84
2023-03-17T11:35:15.582Z,99427.63
2023-03-17T11:36:35.101Z,99436.00
2023-03-17T11:37:55.489Z,99412.81
2023-03-17T11:39:07.409Z,99418.72
2023-03-17T11:40:19.869Z,99423.78
2023-03-17T11:41:51.502Z,99421.31
2023-03-17T11:43:08.293Z,99418.81
2023-03-17T11:44:42.627Z,99412.72
2023-03-17T11:45:53.047Z,99411.59
2023-03-17T11:47:03.407Z,99408.09
2023-03-17T11:48:31.890Z,99402.81
2023-03-17T11:49:37.769Z,99397.66
2023-03-17T11:50:48.174Z,99396.50
2023-03-17T11:52:02.228Z,99418.66
2023-03-17T11:53:21.226Z,99426.22
2023-03-17T11:54:36.906Z,99432.78
2023-03-17T11:55:46.160Z,99418.63
2023-03-17T11:56:53.221Z,99424.63
2023-03-17T11:57:59.855Z,99421.84
2023-03-17T11:59:08.281Z,99413.06
2023-03-17T12:00:21.819Z,99408.72
2023-03-17T12:01:34.389Z,99407.91
2023-03-17T12:02:42.790Z,99393.75
2023-03-17T12:03:50.973Z,99405.78
2023-03-17T12:04:58.816Z,99397.81
2023-03-17T12:06:05.825Z,99403.59
2023-03-17T12:07:23.967Z,99400.63
2023-03-17T12:08:35.604Z,99407.22
2023-03-17T12:09:43.708Z,99399.78
2023-03-17T12:10:50.883Z,99400.75
2023-03-17T12:11:57.298Z,99411.19
2023-03-17T12:13:03.970Z,99406.38
2023-03-17T12:14:20.652Z,99401.66
2023-03-17T12:15:29.881Z,99410.44
2023-03-17T12:16:40.895Z,99417.88
2023-03-17T12:17:58.277Z,99408.66
2023-03-17T12:19:27.546Z,99382.19
2023-03-17T12:20:41.765Z,99401.94
2023-03-17T12:21:52.733Z,99423.84
2023-03-17T12:23:00.012Z,99421.06
2023-03-17T12:24:10.349Z,99421.72
2023-03-17T12:25:19.471Z,99424.66
2023-03-17T12:26:31.889Z,99425.59
2023-03-17T12:27:41.745Z,99423.84
2023-03-17T12:28:57.849Z,99430.53
2023-03-17T12:30:05.800Z,99446.06
2023-03-17T12:31:15.331Z,99448.34
2023-03-17T12:32:26.915Z,99452.44
2023-03-17T12:33:35.792Z,99442.03
2023-03-17T12:34:44.825Z,99439.38
2023-03-17T12:35:48.582Z,99446.72
2023-03-17T12:36:52.844Z,99441.84
2023-03-17T12:38:02.095Z,99459.88
2023-03-17T12:39:11.441Z,99437.78
2023-03-17T12:40:18.697Z,99439.47
2023-03-17T12:41:59.924Z,99451.59
2023-03-17T12:43:16.636Z,99463.47
2023-03-17T12:44:37.326Z,99451.75
2023-03-17T12:45:57.438Z,99407.63
2023-03-17T12:47:23.659Z,99405.31
2023-03-17T12:48:59.606Z,99390.56
2023-03-17T12:50:33.580Z,99418.28
2023-03-17T12:51:48.177Z,99431.16
2023-03-17T12:53:17.734Z,99416.34
2023-03-17T12:54:26.629Z,99427.31
2023-03-17T12:55:36.319Z,99419.41